Time;durP1;ratioP1;P1;durP2;ratioP2;P2;SDS_P1;SDS_P2;PMS_P1;PMS_P2;Temp;Humidity;BMP_temperature;BMP_pressure;BME280_temperature;BME280_humidity;BME280_pressure;Samples;Min_cycle;Max_cycle;Signal;HPM_P1;HPM_P2
2021/09/13 00:00:21;;;;;;;8.07;4.80;;;;;;;;;;4979472;28;20212;-76
2021/09/13 00:02:48;;;;;;;9.57;5.50;;;;;;;;;;4982964;28;20206;-76
2021/09/13 00:05:16;;;;;;;14.53;5.53;;;;;;;;;;4983553;28;20232;-76
2021/09/13 00:07:43;;;;;;;11.07;5.80;;;;;;;;;;4983186;28;20205;-76
2021/09/13 00:10:10;;;;;;;9.77;5.60;;;;;;;;;;4984491;28;20667;-76
2021/09/13 00:12:39;;;;;;;10.07;5.30;;;;;;;;;;4980407;28;20687;-76
2021/09/13 00:15:09;;;;;;;9.03;5.20;;;;;;;;;;4980625;28;20257;-76
2021/09/13 00:17:36;;;;;;;13.17;6.23;;;;;;;;;;4979012;28;20208;-76
2021/09/13 00:20:03;;;;;;;7.77;5.30;;;;;;;;;;4976732;28;20217;-77
2021/09/13 00:22:31;;;;;;;12.27;6.33;;;;;;;;;;4975158;28;20296;-77
2021/09/13 00:24:58;;;;;;;10.27;5.80;;;;;;;;;;4976421;28;20317;-76
2021/09/13 00:27:25;;;;;;;9.40;5.40;;;;;;;;;;4976908;28;20220;-77
2021/09/13 00:29:52;;;;;;;9.90;5.80;;;;;;;;;;4977048;28;20205;-76
2021/09/13 00:32:21;;;;;;;9.63;5.70;;;;;;;;;;4980403;28;20208;-77
2021/09/13 00:34:48;;;;;;;10.60;5.80;;;;;;;;;;4984101;28;21208;-76
2021/09/13 00:37:15;;;;;;;12.30;5.70;;;;;;;;;;4983024;28;20917;-76
2021/09/13 00:39:42;;;;;;;9.57;5.50;;;;;;;;;;4984396;28;21387;-76
2021/09/13 00:42:09;;;;;;;10.33;5.60;;;;;;;;;;4981310;28;20293;-76
2021/09/13 00:44:37;;;;;;;11.57;5.53;;;;;;;;;;4980376;28;20231;-76
2021/09/13 00:47:04;;;;;;;13.53;6.30;;;;;;;;;;4981833;28;20753;-76
2021/09/13 00:49:32;;;;;;;12.63;5.50;;;;;;;;;;4980905;28;20205;-75
2021/09/13 00:52:00;;;;;;;10.80;5.63;;;;;;;;;;4982252;28;20734;-76
2021/09/13 00:54:27;;;;;;;10.23;6.17;;;;;;;;;;4984327;28;20311;-76
2021/09/13 00:56:54;;;;;;;16.00;6.43;;;;;;;;;;4979288;28;20201;-77
2021/09/13 00:59:21;;;;;;;9.10;5.37;;;;;;;;;;4976055;28;20241;-75
2021/09/13 01:01:48;;;;;;;8.83;5.80;;;;;;;;;;4979404;28;20214;-76
2021/09/13 01:04:16;;;;;;;13.07;5.50;;;;;;;;;;4982698;28;20623;-76
2021/09/13 01:06:44;;;;;;;12.47;5.60;;;;;;;;;;4980501;28;20217;-75
2021/09/13 01:09:12;;;;;;;9.90;5.60;;;;;;;;;;4984276;28;20299;-75
2021/09/13 01:11:39;;;;;;;10.00;5.93;;;;;;;;;;4981880;28;20304;-76
2021/09/13 01:14:06;;;;;;;9.53;5.60;;;;;;;;;;4982601;28;20316;-76
2021/09/13 01:16:33;;;;;;;11.33;5.77;;;;;;;;;;4982826;28;20202;-76
2021/09/13 01:19:00;;;;;;;10.30;5.77;;;;;;;;;;4983065;28;20204;-76
2021/09/13 01:21:28;;;;;;;12.03;6.10;;;;;;;;;;4981446;28;20198;-78
2021/09/13 01:23:56;;;;;;;12.70;5.70;;;;;;;;;;4980280;28;20201;-76
2021/09/13 01:26:23;;;;;;;9.23;5.17;;;;;;;;;;4983274;28;20231;-76
2021/09/13 01:28:51;;;;;;;9.03;6.00;;;;;;;;;;4978996;28;20296;-76
2021/09/13 01:31:18;;;;;;;11.03;5.60;;;;;;;;;;4977658;28;20323;-76
2021/09/13 01:33:45;;;;;;;13.87;5.97;;;;;;;;;;4981827;28;20466;-75
2021/09/13 01:36:12;;;;;;;11.53;6.10;;;;;;;;;;4982793;28;20714;-76
2021/09/13 01:38:39;;;;;;;13.37;6.50;;;;;;;;;;4981590;28;21046;-77
2021/09/13 01:41:08;;;;;;;8.67;6.03;;;;;;;;;;4983088;28;20674;-76
2021/09/13 01:43:35;;;;;;;8.23;5.83;;;;;;;;;;4977715;28;20205;-77
2021/09/13 01:46:02;;;;;;;11.37;5.80;;;;;;;;;;4980915;28;20323;-76
2021/09/13 01:48:29;;;;;;;10.33;5.40;;;;;;;;;;4981993;28;20204;-76
2021/09/13 01:50:57;;;;;;;10.73;6.63;;;;;;;;;;4982266;28;20228;-77
2021/09/13 01:53:24;;;;;;;8.10;5.83;;;;;;;;;;4980781;28;20387;-75
2021/09/13 01:55:51;;;;;;;13.93;6.43;;;;;;;;;;4973988;28;20706;-76
2021/09/13 01:58:19;;;;;;;12.07;5.80;;;;;;;;;;4981372;28;20304;-76
2021/09/13 02:00:46;;;;;;;11.77;6.63;;;;;;;;;;4974915;28;20307;-77
2021/09/13 02:03:14;;;;;;;11.37;6.47;;;;;;;;;;4979412;28;20213;-76
2021/09/13 02:05:41;;;;;;;12.90;6.97;;;;;;;;;;4976998;28;20221;-76
2021/09/13 02:08:08;;;;;;;13.30;6.50;;;;;;;;;;4976975;28;20212;-76
2021/09/13 02:10:35;;;;;;;12.17;6.83;;;;;;;;;;4983291;28;20211;-76
2021/09/13 02:13:02;;;;;;;13.40;6.33;;;;;;;;;;4980755;28;20216;-75
2021/09/13 02:15:31;;;;;;;10.57;6.73;;;;;;;;;;4977415;28;20225;-76
2021/09/13 02:17:58;;;;;;;10.30;6.33;;;;;;;;;;4983022;28;20292;-76
2021/09/13 02:20:25;;;;;;;13.10;6.27;;;;;;;;;;4980503;28;20201;-76
2021/09/13 02:22:52;;;;;;;10.43;5.83;;;;;;;;;;4981342;28;20285;-76
2021/09/13 02:25:19;;;;;;;12.83;6.37;;;;;;;;;;4979568;28;20234;-76
2021/09/13 02:27:46;;;;;;;15.77;5.87;;;;;;;;;;4977672;28;20236;-76
2021/09/13 02:30:14;;;;;;;10.00;5.90;;;;;;;;;;4979319;28;20758;-76
2021/09/13 02:32:42;;;;;;;8.30;5.70;;;;;;;;;;4976296;28;20309;-77
2021/09/13 02:35:10;;;;;;;12.47;6.87;;;;;;;;;;4976413;28;20235;-76
2021/09/13 02:37:37;;;;;;;10.23;6.13;;;;;;;;;;4984154;28;20282;-76
2021/09/13 02:40:05;;;;;;;9.90;6.27;;;;;;;;;;4978036;28;20251;-76
2021/09/13 02:42:33;;;;;;;12.63;6.00;;;;;;;;;;4979660;28;20232;-76
2021/09/13 02:45:00;;;;;;;11.60;6.47;;;;;;;;;;4977103;28;20703;-76
2021/09/13 02:47:27;;;;;;;13.37;6.60;;;;;;;;;;4976350;28;20218;-75
2021/09/13 02:49:56;;;;;;;12.00;6.40;;;;;;;;;;4978662;28;20578;-76
2021/09/13 02:52:23;;;;;;;14.43;6.23;;;;;;;;;;4979467;28;20354;-76
2021/09/13 02:54:51;;;;;;;10.93;6.60;;;;;;;;;;4977705;28;20316;-76
2021/09/13 02:57:18;;;;;;;12.87;6.83;;;;;;;;;;4980759;28;20292;-77
2021/09/13 02:59:47;;;;;;;11.10;6.90;;;;;;;;;;4975444;28;20209;-76
2021/09/13 03:02:14;;;;;;;11.63;6.53;;;;;;;;;;4982327;28;20465;-75
2021/09/13 03:04:41;;;;;;;13.77;6.03;;;;;;;;;;4974814;28;20315;-77
2021/09/13 03:07:10;;;;;;;13.23;6.50;;;;;;;;;;4974337;28;20228;-75
2021/09/13 03:09:37;;;;;;;9.53;6.83;;;;;;;;;;4974638;28;20237;-76
2021/09/13 03:12:05;;;;;;;10.00;6.23;;;;;;;;;;4980214;28;20252;-75
2021/09/13 03:14:32;;;;;;;11.43;6.83;;;;;;;;;;4970838;28;20506;-76
2021/09/13 03:16:59;;;;;;;13.37;6.57;;;;;;;;;;4972602;28;20284;-76
2021/09/13 03:19:26;;;;;;;10.20;5.73;;;;;;;;;;4975532;28;20209;-75
2021/09/13 03:21:54;;;;;;;9.80;6.57;;;;;;;;;;4973029;28;20295;-76
2021/09/13 03:24:22;;;;;;;10.00;6.93;;;;;;;;;;4971327;28;20324;-77
2021/09/13 03:26:49;;;;;;;10.60;6.60;;;;;;;;;;4972292;28;20672;-76
2021/09/13 03:29:17;;;;;;;12.20;6.50;;;;;;;;;;4973305;28;20210;-77
2021/09/13 03:31:44;;;;;;;14.43;6.50;;;;;;;;;;4971531;28;20734;-77
2021/09/13 03:34:11;;;;;;;9.30;6.10;;;;;;;;;;4975882;28;20280;-75
2021/09/13 03:36:39;;;;;;;13.57;6.07;;;;;;;;;;4972927;28;20204;-76
2021/09/13 03:39:07;;;;;;;12.57;6.60;;;;;;;;;;4973602;28;20264;-76
2021/09/13 03:41:35;;;;;;;14.70;6.67;;;;;;;;;;4973541;28;20201;-76
2021/09/13 03:44:02;;;;;;;15.43;7.07;;;;;;;;;;4972516;28;20313;-77
2021/09/13 03:46:29;;;;;;;10.07;6.93;;;;;;;;;;4975803;28;20263;-75
2021/09/13 03:48:57;;;;;;;10.20;6.60;;;;;;;;;;4977616;28;20572;-76
2021/09/13 03:51:24;;;;;;;14.07;6.50;;;;;;;;;;4980398;28;20230;-75
2021/09/13 03:53:51;;;;;;;10.97;6.30;;;;;;;;;;4977645;28;20285;-74
2021/09/13 03:56:18;;;;;;;10.17;6.17;;;;;;;;;;4980103;28;20355;-76
2021/09/13 03:58:47;;;;;;;13.10;6.60;;;;;;;;;;4980458;28;20204;-75
2021/09/13 04:01:14;;;;;;;13.13;7.10;;;;;;;;;;4978884;28;20301;-74
2021/09/13 04:03:45;;;;;;;14.50;7.20;;;;;;;;;;4980316;28;20233;-76
2021/09/13 04:06:21;;;;;;;13.67;7.00;;;;;;;;;;4976287;28;20210;-76
2021/09/13 04:09:05;;;;;;;15.17;7.23;;;;;;;;;;4978612;28;20201;-73
2021/09/13 04:11:45;;;;;;;12.00;6.90;;;;;;;;;;4976753;28;20213;-73
2021/09/13 04:14:14;;;;;;;11.57;7.03;;;;;;;;;;4974763;28;20656;-76
2021/09/13 04:16:41;;;;;;;10.30;6.83;;;;;;;;;;4978545;28;20461;-74
2021/09/13 04:19:08;;;;;;;11.00;6.67;;;;;;;;;;4978114;28;20309;-74
2021/09/13 04:21:36;;;;;;;8.43;6.17;;;;;;;;;;4976449;28;20229;-74
2021/09/13 04:24:03;;;;;;;12.07;7.47;;;;;;;;;;4976813;28;20228;-76
2021/09/13 04:26:30;;;;;;;14.70;7.67;;;;;;;;;;4977822;28;20234;-75
2021/09/13 04:28:57;;;;;;;10.67;7.40;;;;;;;;;;4975885;28;20583;-74
2021/09/13 04:31:27;;;;;;;15.10;7.27;;;;;;;;;;4977487;28;20297;-77
2021/09/13 04:33:54;;;;;;;16.20;7.10;;;;;;;;;;4979270;28;20701;-77
2021/09/13 04:36:21;;;;;;;11.20;7.47;;;;;;;;;;4976544;28;20213;-79
2021/09/13 04:38:49;;;;;;;12.03;7.87;;;;;;;;;;4979682;28;20392;-74
2021/09/13 04:41:16;;;;;;;15.93;7.40;;;;;;;;;;4975801;28;20201;-75
2021/09/13 04:43:43;;;;;;;23.40;8.00;;;;;;;;;;4980458;28;20312;-76
2021/09/13 04:46:10;;;;;;;13.57;7.50;;;;;;;;;;4979500;28;20205;-76
2021/09/13 04:48:39;;;;;;;11.73;6.70;;;;;;;;;;4981177;28;20708;-76
2021/09/13 04:51:06;;;;;;;11.40;6.90;;;;;;;;;;4980719;28;20210;-75
2021/09/13 04:53:33;;;;;;;12.00;7.40;;;;;;;;;;4977524;28;20288;-76
2021/09/13 04:56:00;;;;;;;15.47;7.80;;;;;;;;;;4981263;28;20787;-76
2021/09/13 04:58:28;;;;;;;9.57;6.23;;;;;;;;;;4980108;28;20280;-76
2021/09/13 05:00:55;;;;;;;11.13;7.13;;;;;;;;;;4988916;28;20288;-76
2021/09/13 05:03:22;;;;;;;15.27;7.30;;;;;;;;;;4986198;28;20209;-76
2021/09/13 05:05:50;;;;;;;12.83;7.30;;;;;;;;;;4979010;28;20232;-75
2021/09/13 05:08:18;;;;;;;17.13;7.37;;;;;;;;;;4978903;28;20320;-75
2021/09/13 05:10:45;;;;;;;12.97;7.03;;;;;;;;;;4981159;28;20291;-75
2021/09/13 05:13:12;;;;;;;11.67;7.00;;;;;;;;;;4976024;28;20239;-75
2021/09/13 05:15:39;;;;;;;11.40;7.50;;;;;;;;;;4979171;28;20221;-75
2021/09/13 05:18:06;;;;;;;15.93;7.63;;;;;;;;;;4981866;28;20705;-76
2021/09/13 05:20:33;;;;;;;12.30;7.40;;;;;;;;;;4977214;28;20973;-76
2021/09/13 05:23:02;;;;;;;15.90;7.93;;;;;;;;;;4977712;28;20263;-75
2021/09/13 05:25:32;;;;;;;11.07;7.07;;;;;;;;;;4976915;28;20225;-75
2021/09/13 05:28:04;;;;;;;17.20;7.50;;;;;;;;;;4975953;28;20247;-75
2021/09/13 05:30:32;;;;;;;13.00;6.97;;;;;;;;;;4972040;28;20291;-75
2021/09/13 05:32:59;;;;;;;12.80;6.53;;;;;;;;;;4971139;28;20761;-75
2021/09/13 05:35:27;;;;;;;14.27;6.90;;;;;;;;;;4971849;28;20516;-75
2021/09/13 05:37:54;;;;;;;9.93;6.13;;;;;;;;;;4978504;28;20197;-75
2021/09/13 05:40:22;;;;;;;9.00;5.93;;;;;;;;;;4972651;28;20301;-75
2021/09/13 05:42:49;;;;;;;9.13;5.70;;;;;;;;;;4974130;28;20295;-75
2021/09/13 05:45:17;;;;;;;8.70;5.90;;;;;;;;;;4972392;28;20320;-75
2021/09/13 05:47:44;;;;;;;11.93;5.67;;;;;;;;;;4971553;28;20308;-74
2021/09/13 05:50:11;;;;;;;10.37;5.93;;;;;;;;;;4973352;28;20210;-75
2021/09/13 05:52:39;;;;;;;9.97;5.83;;;;;;;;;;4973911;28;20719;-75
2021/09/13 05:55:06;;;;;;;11.47;5.87;;;;;;;;;;4976317;28;20323;-75
2021/09/13 05:57:35;;;;;;;14.03;6.17;;;;;;;;;;4973268;28;20209;-75
2021/09/13 06:00:03;;;;;;;10.80;5.97;;;;;;;;;;4975762;28;20212;-75
2021/09/13 06:02:30;;;;;;;11.30;5.70;;;;;;;;;;4971745;28;20293;-75
2021/09/13 06:04:57;;;;;;;11.27;6.33;;;;;;;;;;4972613;28;20261;-75
2021/09/13 06:07:25;;;;;;;9.63;6.17;;;;;;;;;;4975824;28;20221;-75
2021/09/13 06:09:52;;;;;;;12.30;6.13;;;;;;;;;;4977644;28;20237;-75
2021/09/13 06:12:19;;;;;;;7.67;5.20;;;;;;;;;;4972793;28;20292;-75
2021/09/13 06:14:48;;;;;;;9.13;4.70;;;;;;;;;;4971493;28;20284;-75
2021/09/13 06:17:15;;;;;;;7.67;5.00;;;;;;;;;;4972970;28;20734;-75
2021/09/13 06:19:42;;;;;;;7.33;4.80;;;;;;;;;;4971350;28;20209;-75
2021/09/13 06:22:09;;;;;;;8.80;4.87;;;;;;;;;;4972989;28;20225;-75
2021/09/13 06:24:39;;;;;;;10.23;4.67;;;;;;;;;;4976599;28;20233;-75
2021/09/13 06:27:07;;;;;;;8.70;4.73;;;;;;;;;;4974213;28;20297;-75
2021/09/13 06:29:34;;;;;;;7.80;4.33;;;;;;;;;;4972857;28;20571;-75
2021/09/13 06:32:03;;;;;;;13.90;4.37;;;;;;;;;;4976694;28;20801;-75
2021/09/13 06:34:31;;;;;;;8.97;4.40;;;;;;;;;;4979399;28;20259;-75
2021/09/13 06:36:58;;;;;;;11.00;4.20;;;;;;;;;;4983188;28;20267;-75
2021/09/13 06:39:25;;;;;;;6.77;4.37;;;;;;;;;;4977308;28;20296;-75
2021/09/13 06:41:53;;;;;;;10.40;4.63;;;;;;;;;;4978880;28;20256;-75
2021/09/13 06:44:23;;;;;;;9.37;4.60;;;;;;;;;;4976848;28;20316;-75
2021/09/13 06:47:01;;;;;;;10.20;4.63;;;;;;;;;;4976848;28;20231;-75
2021/09/13 06:49:30;;;;;;;8.30;4.57;;;;;;;;;;4980759;28;20263;-75
2021/09/13 06:51:57;;;;;;;8.40;4.47;;;;;;;;;;4979414;28;20774;-75
2021/09/13 06:54:26;;;;;;;7.47;4.60;;;;;;;;;;4980978;28;20241;-75
2021/09/13 06:56:53;;;;;;;8.20;4.67;;;;;;;;;;4978607;28;20287;-75
2021/09/13 06:59:21;;;;;;;11.30;4.90;;;;;;;;;;4981295;28;20299;-74
2021/09/13 07:01:48;;;;;;;8.93;4.70;;;;;;;;;;4978921;28;20205;-75
2021/09/13 07:04:15;;;;;;;9.70;4.83;;;;;;;;;;4978679;28;20315;-75
2021/09/13 07:06:44;;;;;;;7.77;4.97;;;;;;;;;;4975716;28;20205;-74
2021/09/13 07:09:11;;;;;;;9.53;4.60;;;;;;;;;;4971227;28;20225;-75
2021/09/13 07:11:38;;;;;;;7.60;4.70;;;;;;;;;;4974061;28;20690;-76
2021/09/13 07:14:05;;;;;;;9.13;5.43;;;;;;;;;;4977521;28;20256;-76
2021/09/13 07:16:33;;;;;;;8.07;4.50;;;;;;;;;;4978703;28;20224;-74
2021/09/13 07:19:01;;;;;;;7.63;5.03;;;;;;;;;;4979968;28;20201;-75
2021/09/13 07:21:28;;;;;;;7.97;4.67;;;;;;;;;;4975029;28;20213;-75
2021/09/13 07:23:56;;;;;;;11.33;5.47;;;;;;;;;;4979164;28;20303;-75
2021/09/13 07:26:24;;;;;;;13.00;5.00;;;;;;;;;;4974966;28;20216;-75
2021/09/13 07:28:51;;;;;;;10.20;5.03;;;;;;;;;;4976238;28;20253;-75
2021/09/13 07:31:18;;;;;;;11.30;5.23;;;;;;;;;;4978959;28;20206;-76
2021/09/13 07:33:45;;;;;;;8.23;4.70;;;;;;;;;;4980560;28;20204;-76
2021/09/13 07:36:12;;;;;;;11.70;5.10;;;;;;;;;;4980327;28;20295;-76
2021/09/13 07:38:40;;;;;;;12.27;4.83;;;;;;;;;;4981211;28;20209;-76
2021/09/13 07:41:08;;;;;;;7.97;4.97;;;;;;;;;;4974757;28;20215;-76
2021/09/13 07:43:35;;;;;;;12.03;4.87;;;;;;;;;;4979666;28;20255;-76
2021/09/13 07:46:04;;;;;;;7.83;4.27;;;;;;;;;;4977760;28;20233;-76
2021/09/13 07:48:31;;;;;;;8.07;4.70;;;;;;;;;;4982135;28;20229;-76
2021/09/13 07:50:59;;;;;;;7.53;4.90;;;;;;;;;;4984134;28;20323;-76
2021/09/13 07:53:26;;;;;;;10.13;4.17;;;;;;;;;;4980932;28;20649;-76
2021/09/13 07:55:53;;;;;;;8.47;4.83;;;;;;;;;;4983700;28;20221;-76
2021/09/13 07:58:21;;;;;;;9.37;5.03;;;;;;;;;;4984797;28;20196;-76
2021/09/13 08:00:50;;;;;;;9.90;5.23;;;;;;;;;;4980710;28;20214;-76
2021/09/13 08:03:17;;;;;;;7.20;4.87;;;;;;;;;;4982173;28;20292;-77
2021/09/13 08:05:44;;;;;;;11.77;5.43;;;;;;;;;;4979917;28;20257;-76
2021/09/13 08:08:12;;;;;;;10.93;5.40;;;;;;;;;;4977307;28;20231;-76
2021/09/13 08:10:39;;;;;;;10.77;5.90;;;;;;;;;;4981142;28;20214;-76
2021/09/13 08:13:06;;;;;;;10.07;5.43;;;;;;;;;;4975057;28;20296;-76
2021/09/13 08:15:36;;;;;;;7.67;5.10;;;;;;;;;;4975925;28;20291;-75
2021/09/13 08:18:03;;;;;;;8.30;5.50;;;;;;;;;;4978831;28;20291;-75
2021/09/13 08:20:31;;;;;;;10.43;5.17;;;;;;;;;;4980580;28;21031;-75
2021/09/13 08:22:58;;;;;;;12.20;6.33;;;;;;;;;;4977177;28;20300;-75
2021/09/13 08:25:25;;;;;;;10.10;6.07;;;;;;;;;;4980398;28;20217;-75
2021/09/13 08:27:52;;;;;;;9.93;5.80;;;;;;;;;;4982969;28;20324;-75
2021/09/13 08:30:19;;;;;;;10.43;5.50;;;;;;;;;;4981308;28;20209;-75
2021/09/13 08:32:48;;;;;;;13.10;5.30;;;;;;;;;;4981325;28;20690;-75
2021/09/13 08:35:15;;;;;;;12.10;5.43;;;;;;;;;;4980685;28;20320;-75
2021/09/13 08:37:42;;;;;;;7.33;4.43;;;;;;;;;;4984318;28;20283;-75
2021/09/13 08:40:10;;;;;;;12.07;4.57;;;;;;;;;;4981032;28;20223;-75
2021/09/13 08:42:43;;;;;;;9.23;5.07;;;;;;;;;;4976640;28;20227;-75
2021/09/13 08:45:12;;;;;;;9.33;5.13;;;;;;;;;;4975365;28;20710;-75
2021/09/13 08:47:50;;;;;;;5.37;3.80;;;;;;;;;;4974300;28;20200;-75
2021/09/13 08:50:27;;;;;;;9.27;4.90;;;;;;;;;;4978732;28;20208;-75
2021/09/13 08:52:54;;;;;;;8.57;5.50;;;;;;;;;;4974713;28;20205;-75
2021/09/13 08:55:22;;;;;;;10.00;5.47;;;;;;;;;;4973150;28;20710;-75
2021/09/13 08:57:51;;;;;;;13.30;5.23;;;;;;;;;;4972139;28;20268;-75
2021/09/13 09:00:18;;;;;;;14.40;5.10;;;;;;;;;;4973374;28;20683;-75
2021/09/13 09:02:46;;;;;;;11.47;5.80;;;;;;;;;;4977624;28;20294;-75
2021/09/13 09:05:13;;;;;;;7.40;4.87;;;;;;;;;;4977309;28;20321;-75
2021/09/13 09:07:52;;;;;;;9.07;5.20;;;;;;;;;;4977676;28;20207;-75
2021/09/13 09:10:23;;;;;;;10.83;5.47;;;;;;;;;;4974187;28;20400;-75
2021/09/13 09:15:18;;;;;;;10.07;5.40;;;;;;;;;;4997289;28;20217;-76
2021/09/13 09:17:50;;;;;;;12.20;5.63;;;;;;;;;;4996062;28;20283;-76
2021/09/13 09:20:17;;;;;;;8.60;5.47;;;;;;;;;;4998871;28;20247;-76
2021/09/13 09:22:45;;;;;;;9.07;4.47;;;;;;;;;;4989815;28;20204;-76
2021/09/13 09:25:26;;;;;;;9.30;5.67;;;;;;;;;;4990491;28;20778;-76
2021/09/13 09:27:54;;;;;;;9.73;5.33;;;;;;;;;;4991930;28;20484;-76
2021/09/13 09:30:22;;;;;;;12.03;5.90;;;;;;;;;;4993103;28;20671;-76
2021/09/13 09:33:01;;;;;;;11.77;6.33;;;;;;;;;;5003523;28;20307;-76
2021/09/13 09:35:29;;;;;;;19.40;7.10;;;;;;;;;;4997627;28;20360;-76
2021/09/13 09:37:56;;;;;;;17.53;8.53;;;;;;;;;;4999765;28;20469;-76
2021/09/13 09:40:30;;;;;;;15.20;9.67;;;;;;;;;;4994604;28;20209;-76
2021/09/13 09:42:57;;;;;;;23.47;11.87;;;;;;;;;;4997777;28;20207;-76
2021/09/13 09:45:28;;;;;;;22.90;11.47;;;;;;;;;;4991209;28;20315;-76
2021/09/13 09:48:08;;;;;;;22.03;12.10;;;;;;;;;;4996670;28;20223;-76
2021/09/13 09:50:35;;;;;;;14.20;8.67;;;;;;;;;;4996263;28;20208;-75
2021/09/13 09:53:15;;;;;;;15.27;9.27;;;;;;;;;;4996246;28;20303;-76
2021/09/13 09:55:49;;;;;;;19.87;12.53;;;;;;;;;;4991282;28;20251;-76
2021/09/13 09:58:16;;;;;;;19.80;10.63;;;;;;;;;;4992931;28;20221;-75
2021/09/13 10:00:45;;;;;;;16.13;9.20;;;;;;;;;;4993901;28;20217;-76
2021/09/13 10:03:12;;;;;;;15.37;8.73;;;;;;;;;;4994348;28;20291;-76
2021/09/13 10:05:40;;;;;;;13.70;8.20;;;;;;;;;;4997910;28;20266;-75
2021/09/13 10:08:07;;;;;;;15.00;7.60;;;;;;;;;;4995264;28;20248;-75
2021/09/13 10:10:34;;;;;;;20.43;9.13;;;;;;;;;;4995803;28;20208;-75
2021/09/13 10:13:03;;;;;;;12.77;7.03;;;;;;;;;;4990251;28;20283;-76
2021/09/13 10:15:30;;;;;;;12.77;6.40;;;;;;;;;;4993776;28;20320;-75
2021/09/13 10:17:58;;;;;;;14.57;6.50;;;;;;;;;;4996781;28;20662;-75
2021/09/13 10:20:25;;;;;;;9.97;6.10;;;;;;;;;;4991412;28;20215;-75
2021/09/13 10:22:55;;;;;;;12.13;6.43;;;;;;;;;;4988406;28;20211;-75
2021/09/13 10:25:23;;;;;;;24.63;7.97;;;;;;;;;;4994095;28;20239;-75
2021/09/13 10:27:51;;;;;;;9.97;6.87;;;;;;;;;;4993094;28;20235;-75
2021/09/13 10:30:21;;;;;;;10.27;5.53;;;;;;;;;;4997027;28;20268;-75
2021/09/13 10:32:49;;;;;;;14.63;6.57;;;;;;;;;;4995934;28;20254;-75
2021/09/13 10:35:17;;;;;;;17.33;7.60;;;;;;;;;;4993328;28;20301;-75
2021/09/13 10:37:46;;;;;;;8.50;5.87;;;;;;;;;;4998065;28;20221;-75
2021/09/13 10:40:25;;;;;;;8.83;5.67;;;;;;;;;;4994098;28;20747;-75
2021/09/13 10:42:53;;;;;;;9.40;5.93;;;;;;;;;;4990068;28;20239;-75
2021/09/13 10:45:24;;;;;;;7.73;4.87;;;;;;;;;;4998378;28;20279;-75
2021/09/13 10:47:52;;;;;;;9.90;5.30;;;;;;;;;;4990959;28;20594;-75
2021/09/13 10:50:24;;;;;;;12.33;6.50;;;;;;;;;;4984265;28;20279;-75
2021/09/13 10:52:52;;;;;;;6.27;4.80;;;;;;;;;;4994598;28;20268;-75
2021/09/13 10:55:27;;;;;;;9.43;5.30;;;;;;;;;;4994009;28;20484;-75
2021/09/13 10:57:58;;;;;;;10.57;6.40;;;;;;;;;;4997132;28;20669;-75
2021/09/13 11:00:44;;;;;;;9.87;5.67;;;;;;;;;;4993840;28;20237;-75
2021/09/13 11:03:30;;;;;;;9.90;6.30;;;;;;;;;;4993274;28;20212;-75
2021/09/13 11:06:06;;;;;;;10.97;6.70;;;;;;;;;;4998707;28;20745;-75
2021/09/13 11:08:37;;;;;;;11.10;6.30;;;;;;;;;;4991508;28;20219;-75
2021/09/13 11:11:09;;;;;;;12.57;6.10;;;;;;;;;;4999692;28;20299;-75
2021/09/13 11:13:36;;;;;;;9.13;5.77;;;;;;;;;;4995566;28;20309;-75
2021/09/13 11:16:03;;;;;;;10.83;6.37;;;;;;;;;;4996438;28;20275;-75
2021/09/13 11:18:33;;;;;;;9.43;5.17;;;;;;;;;;4997893;28;20295;-75
2021/09/13 11:21:18;;;;;;;8.80;6.17;;;;;;;;;;5000587;28;20211;-75
2021/09/13 11:23:45;;;;;;;11.23;5.70;;;;;;;;;;4995036;28;20805;-75
2021/09/13 11:26:12;;;;;;;8.33;6.07;;;;;;;;;;4995560;28;20591;-75
2021/09/13 11:28:56;;;;;;;9.50;4.73;;;;;;;;;;4995782;28;20208;-75
2021/09/13 11:31:34;;;;;;;9.40;5.60;;;;;;;;;;4991161;28;20649;-75
2021/09/13 11:34:02;;;;;;;9.97;4.83;;;;;;;;;;4997852;28;20207;-75
2021/09/13 11:36:31;;;;;;;10.10;5.80;;;;;;;;;;4997957;28;20582;-78
2021/09/13 11:38:59;;;;;;;9.70;5.20;;;;;;;;;;4997824;28;20296;-74
2021/09/13 11:41:26;;;;;;;9.80;5.90;;;;;;;;;;4989336;28;20206;-74
2021/09/13 11:43:58;;;;;;;11.43;6.13;;;;;;;;;;4998301;28;20201;-74
2021/09/13 11:46:25;;;;;;;9.27;5.17;;;;;;;;;;4997198;28;20300;-75
2021/09/13 11:48:52;;;;;;;7.90;5.17;;;;;;;;;;4994431;28;20293;-75
2021/09/13 11:51:19;;;;;;;8.87;5.73;;;;;;;;;;4986558;28;20294;-79
2021/09/13 11:54:01;;;;;;;10.00;4.57;;;;;;;;;;4987540;28;20283;-79
2021/09/13 11:56:30;;;;;;;12.73;6.50;;;;;;;;;;4983879;28;20289;-79
2021/09/13 11:58:57;;;;;;;12.67;5.83;;;;;;;;;;4987164;28;20286;-79
2021/09/13 12:01:25;;;;;;;14.00;6.67;;;;;;;;;;4986525;28;20261;-80
2021/09/13 12:03:52;;;;;;;10.43;5.90;;;;;;;;;;4987274;28;20282;-80
2021/09/13 12:06:19;;;;;;;17.27;6.97;;;;;;;;;;4985683;28;20209;-80
2021/09/13 12:08:47;;;;;;;10.07;5.50;;;;;;;;;;4986950;28;20957;-80
2021/09/13 12:11:14;;;;;;;9.30;5.33;;;;;;;;;;4983125;28;20238;-80
2021/09/13 12:13:44;;;;;;;9.03;4.73;;;;;;;;;;4982093;28;20211;-78
2021/09/13 12:16:11;;;;;;;9.80;5.70;;;;;;;;;;4992725;28;20301;-78
2021/09/13 12:18:39;;;;;;;8.13;4.93;;;;;;;;;;4983769;28;20755;-77
2021/09/13 12:21:17;;;;;;;8.70;4.80;;;;;;;;;;4980222;28;20217;-77
2021/09/13 12:23:46;;;;;;;7.67;5.03;;;;;;;;;;4976943;28;20349;-77
2021/09/13 12:26:25;;;;;;;11.77;5.67;;;;;;;;;;4980484;28;20579;-77
2021/09/13 12:28:53;;;;;;;8.23;4.93;;;;;;;;;;4975302;28;20205;-76
2021/09/13 12:31:27;;;;;;;8.20;4.73;;;;;;;;;;4980582;28;20241;-78
2021/09/13 12:34:01;;;;;;;6.90;4.80;;;;;;;;;;4989968;28;20287;-77
2021/09/13 12:36:29;;;;;;;8.07;5.30;;;;;;;;;;4988788;28;20205;-77
2021/09/13 12:38:57;;;;;;;7.43;4.70;;;;;;;;;;4976461;28;20285;-77
2021/09/13 12:41:34;;;;;;;10.53;4.83;;;;;;;;;;4977733;28;20233;-78
2021/09/13 12:44:13;;;;;;;9.13;4.13;;;;;;;;;;4979439;28;20996;-77
2021/09/13 12:46:45;;;;;;;8.87;4.67;;;;;;;;;;4980364;28;20257;-77
2021/09/13 12:49:13;;;;;;;6.63;4.30;;;;;;;;;;4983128;28;20324;-77
2021/09/13 12:51:40;;;;;;;8.47;4.83;;;;;;;;;;4972824;28;20273;-77
2021/09/13 12:54:10;;;;;;;8.87;5.03;;;;;;;;;;4973759;28;20327;-77
2021/09/13 12:56:43;;;;;;;7.70;4.63;;;;;;;;;;4975891;28;20222;-77
2021/09/13 12:59:16;;;;;;;6.87;4.63;;;;;;;;;;4980911;28;20726;-77
2021/09/13 13:01:43;;;;;;;7.13;4.30;;;;;;;;;;4988249;28;20519;-77
2021/09/13 13:04:10;;;;;;;7.77;4.77;;;;;;;;;;4978959;28;20705;-77
2021/09/13 13:06:39;;;;;;;8.17;4.10;;;;;;;;;;5000504;28;20697;-77
2021/09/13 13:09:08;;;;;;;8.93;4.80;;;;;;;;;;5002944;28;20209;-76
2021/09/13 13:11:35;;;;;;;6.97;4.43;;;;;;;;;;4998819;28;20210;-76
2021/09/13 13:14:02;;;;;;;10.37;4.60;;;;;;;;;;5000957;28;20210;-78
2021/09/13 13:16:35;;;;;;;10.60;4.20;;;;;;;;;;4998006;28;20298;-76
2021/09/13 13:19:02;;;;;;;6.03;4.10;;;;;;;;;;4990006;28;20575;-76
2021/09/13 13:21:30;;;;;;;7.53;3.97;;;;;;;;;;4994027;28;20236;-76
2021/09/13 13:23:57;;;;;;;7.93;4.30;;;;;;;;;;4994626;28;20222;-76
2021/09/13 13:26:24;;;;;;;5.53;4.13;;;;;;;;;;4996883;28;20244;-76
2021/09/13 13:28:51;;;;;;;6.20;4.73;;;;;;;;;;4996959;28;20687;-76
2021/09/13 13:31:18;;;;;;;8.60;4.37;;;;;;;;;;4995405;28;20900;-76
2021/09/13 13:33:47;;;;;;;8.53;4.57;;;;;;;;;;4995762;28;20320;-76
2021/09/13 13:36:14;;;;;;;6.37;4.40;;;;;;;;;;4994620;28;20309;-76
2021/09/13 13:38:42;;;;;;;10.17;4.13;;;;;;;;;;4985269;28;20213;-76
2021/09/13 13:41:09;;;;;;;6.70;4.13;;;;;;;;;;4994834;28;20693;-75
2021/09/13 13:43:36;;;;;;;6.73;4.00;;;;;;;;;;4998224;28;20219;-76
2021/09/13 13:46:03;;;;;;;5.80;4.10;;;;;;;;;;4997293;28;20235;-75
2021/09/13 13:48:31;;;;;;;9.97;3.73;;;;;;;;;;5000195;28;20582;-76
2021/09/13 13:50:59;;;;;;;9.53;3.87;;;;;;;;;;4997628;28;20597;-76
2021/09/13 13:53:26;;;;;;;7.87;4.53;;;;;;;;;;4995488;28;20200;-76
2021/09/13 13:55:54;;;;;;;6.67;4.07;;;;;;;;;;4996856;28;20233;-75
2021/09/13 13:58:21;;;;;;;7.63;4.50;;;;;;;;;;5000285;28;20616;-76
2021/09/13 14:00:50;;;;;;;12.23;4.37;;;;;;;;;;4999274;28;20212;-77
2021/09/13 14:03:17;;;;;;;12.57;4.40;;;;;;;;;;4993993;28;20200;-77
2021/09/13 14:05:45;;;;;;;8.27;4.10;;;;;;;;;;4996135;28;20580;-78
2021/09/13 14:08:14;;;;;;;7.70;3.87;;;;;;;;;;4996809;28;20532;-78
2021/09/13 14:10:42;;;;;;;7.03;3.97;;;;;;;;;;5000812;28;20228;-78
2021/09/13 14:13:09;;;;;;;5.83;3.63;;;;;;;;;;5006388;28;20696;-82
2021/09/13 14:15:36;;;;;;;7.50;3.97;;;;;;;;;;5000084;28;20680;-76
2021/09/13 14:18:04;;;;;;;8.37;3.70;;;;;;;;;;4994416;28;20217;-76
2021/09/13 14:20:31;;;;;;;4.73;3.50;;;;;;;;;;4989097;28;20259;-77
2021/09/13 14:22:58;;;;;;;6.90;3.73;;;;;;;;;;4994022;28;20231;-77
2021/09/13 14:25:27;;;;;;;10.67;3.70;;;;;;;;;;4990357;28;20232;-77
2021/09/13 14:27:54;;;;;;;12.40;3.80;;;;;;;;;;4988086;28;20247;-77
2021/09/13 14:30:21;;;;;;;5.53;3.73;;;;;;;;;;4990806;28;20218;-76
2021/09/13 14:32:48;;;;;;;6.47;3.87;;;;;;;;;;4992197;28;20301;-76
2021/09/13 14:35:15;;;;;;;5.27;3.47;;;;;;;;;;4975503;28;20221;-79
2021/09/13 14:37:43;;;;;;;6.87;3.70;;;;;;;;;;4971946;28;20205;-76
2021/09/13 14:40:11;;;;;;;6.17;3.40;;;;;;;;;;4976719;28;20292;-76
2021/09/13 14:42:40;;;;;;;6.63;3.87;;;;;;;;;;4981665;28;20205;-75
2021/09/13 14:45:08;;;;;;;6.40;3.53;;;;;;;;;;4982999;28;20229;-75